sensor_id;sensor_type;location;lat;lon;timestamp;temperature;humidity
33673;DHT22;20011;51.510;9.942;2024-02-16T00:00:10;12.50;99.90
33673;DHT22;20011;51.510;9.942;2024-02-16T00:02:40;12.50;99.90
33673;DHT22;20011;51.510;9.942;2024-02-16T00:05:09;12.40;99.90
33673;DHT22;20011;51.510;9.942;2024-02-16T00:07:39;12.50;99.90
33673;DHT22;20011;51.510;9.942;2024-02-16T00:10:07;12.40;99.90
33673;DHT22;20011;51.510;9.942;2024-02-16T00:12:35;12.50;99.90
33673;DHT22;20011;51.510;9.942;2024-02-16T00:15:03;12.40;99.90
33673;DHT22;20011;51.510;9.942;2024-02-16T00:17:30;12.40;99.90
33673;DHT22;20011;51.510;9.942;2024-02-16T00:19:57;12.40;99.90
33673;DHT22;20011;51.510;9.942;2024-02-16T00:22:24;12.40;99.90
33673;DHT22;20011;51.510;9.942;2024-02-16T00:24:51;12.30;99.90
33673;DHT22;20011;51.510;9.942;2024-02-16T00:27:18;12.40;99.90
33673;DHT22;20011;51.510;9.942;2024-02-16T00:29:45;12.30;99.90
33673;DHT22;20011;51.510;9.942;2024-02-16T00:32:15;12.30;99.90
33673;DHT22;20011;51.510;9.942;2024-02-16T00:34:43;12.20;99.90
33673;DHT22;20011;51.510;9.942;2024-02-16T00:37:10;12.20;99.90
33673;DHT22;20011;51.510;9.942;2024-02-16T00:39:38;12.20;99.90
33673;DHT22;20011;51.510;9.942;2024-02-16T00:42:10;12.20;99.90
33673;DHT22;20011;51.510;9.942;2024-02-16T00:44:38;12.20;99.90
33673;DHT22;20011;51.510;9.942;2024-02-16T00:47:05;12.10;99.90
33673;DHT22;20011;51.510;9.942;2024-02-16T00:49:33;12.10;99.90
33673;DHT22;20011;51.510;9.942;2024-02-16T00:52:00;12.00;99.90
33673;DHT22;20011;51.510;9.942;2024-02-16T00:54:28;12.00;99.90
33673;DHT22;20011;51.510;9.942;2024-02-16T00:56:55;12.00;99.90
33673;DHT22;20011;51.510;9.942;2024-02-16T00:59:29;12.10;99.90
33673;DHT22;20011;51.510;9.942;2024-02-16T01:01:56;12.00;99.90
33673;DHT22;20011;51.510;9.942;2024-02-16T01:04:23;12.00;99.90
33673;DHT22;20011;51.510;9.942;2024-02-16T01:06:50;12.00;99.90
33673;DHT22;20011;51.510;9.942;2024-02-16T01:09:17;12.10;99.90
33673;DHT22;20011;51.510;9.942;2024-02-16T01:11:44;12.10;99.90
33673;DHT22;20011;51.510;9.942;2024-02-16T01:14:11;12.10;99.90
33673;DHT22;20011;51.510;9.942;2024-02-16T01:16:39;12.10;99.90
33673;DHT22;20011;51.510;9.942;2024-02-16T01:19:06;12.00;99.90
33673;DHT22;20011;51.510;9.942;2024-02-16T01:21:34;12.10;99.90
33673;DHT22;20011;51.510;9.942;2024-02-16T01:24:01;12.20;99.90
33673;DHT22;20011;51.510;9.942;2024-02-16T01:26:28;12.10;99.90
33673;DHT22;20011;51.510;9.942;2024-02-16T01:28:55;12.10;99.90
33673;DHT22;20011;51.510;9.942;2024-02-16T01:31:22;12.10;99.90
33673;DHT22;20011;51.510;9.942;2024-02-16T01:33:49;12.20;99.90
33673;DHT22;20011;51.510;9.942;2024-02-16T01:36:16;12.20;99.90
33673;DHT22;20011;51.510;9.942;2024-02-16T01:38:43;12.20;99.90
33673;DHT22;20011;51.510;9.942;2024-02-16T01:41:10;12.20;99.90
33673;DHT22;20011;51.510;9.942;2024-02-16T01:43:37;12.20;99.90
33673;DHT22;20011;51.510;9.942;2024-02-16T01:46:04;12.20;99.90
33673;DHT22;20011;51.510;9.942;2024-02-16T01:48:32;12.20;99.90
33673;DHT22;20011;51.510;9.942;2024-02-16T01:50:59;12.20;99.90
33673;DHT22;20011;51.510;9.942;2024-02-16T01:53:29;12.20;99.90
33673;DHT22;20011;51.510;9.942;2024-02-16T01:55:56;12.20;99.90
33673;DHT22;20011;51.510;9.942;2024-02-16T01:58:23;12.20;99.90
33673;DHT22;20011;51.510;9.942;2024-02-16T02:00:50;12.20;99.90
33673;DHT22;20011;51.510;9.942;2024-02-16T02:03:17;12.20;99.90
33673;DHT22;20011;51.510;9.942;2024-02-16T02:05:45;12.10;99.90
33673;DHT22;20011;51.510;9.942;2024-02-16T02:08:13;12.10;99.90
33673;DHT22;20011;51.510;9.942;2024-02-16T02:10:41;12.10;99.90
33673;DHT22;20011;51.510;9.942;2024-02-16T02:13:08;12.10;99.90
33673;DHT22;20011;51.510;9.942;2024-02-16T02:15:36;12.10;99.90
33673;DHT22;20011;51.510;9.942;2024-02-16T02:18:05;12.20;99.90
33673;DHT22;20011;51.510;9.942;2024-02-16T02:20:32;12.20;99.90
33673;DHT22;20011;51.510;9.942;2024-02-16T02:23:00;12.20;99.90
33673;DHT22;20011;51.510;9.942;2024-02-16T02:25:27;12.20;99.90
33673;DHT22;20011;51.510;9.942;2024-02-16T02:27:56;12.20;99.90
33673;DHT22;20011;51.510;9.942;2024-02-16T02:30:23;12.20;99.90
33673;DHT22;20011;51.510;9.942;2024-02-16T02:32:50;12.20;99.90
33673;DHT22;20011;51.510;9.942;2024-02-16T02:35:18;12.10;99.90
33673;DHT22;20011;51.510;9.942;2024-02-16T02:37:45;12.10;99.90
33673;DHT22;20011;51.510;9.942;2024-02-16T02:40:12;12.20;99.90
33673;DHT22;20011;51.510;9.942;2024-02-16T02:42:39;12.10;99.90
33673;DHT22;20011;51.510;9.942;2024-02-16T02:45:07;12.10;99.90
33673;DHT22;20011;51.510;9.942;2024-02-16T02:47:34;12.10;99.90
33673;DHT22;20011;51.510;9.942;2024-02-16T02:50:01;12.20;99.90
33673;DHT22;20011;51.510;9.942;2024-02-16T02:52:28;12.10;99.90
33673;DHT22;20011;51.510;9.942;2024-02-16T02:54:56;12.10;99.90
33673;DHT22;20011;51.510;9.942;2024-02-16T02:57:23;12.10;99.90
33673;DHT22;20011;51.510;9.942;2024-02-16T02:59:50;12.10;99.90
33673;DHT22;20011;51.510;9.942;2024-02-16T03:02:16;12.10;99.90
33673;DHT22;20011;51.510;9.942;2024-02-16T03:04:43;12.10;99.90
33673;DHT22;20011;51.510;9.942;2024-02-16T03:07:10;12.10;99.90
33673;DHT22;20011;51.510;9.942;2024-02-16T03:09:37;12.20;99.90
33673;DHT22;20011;51.510;9.942;2024-02-16T03:12:04;12.20;99.90
33673;DHT22;20011;51.510;9.942;2024-02-16T03:14:31;12.20;99.90
33673;DHT22;20011;51.510;9.942;2024-02-16T03:16:58;12.30;99.90
33673;DHT22;20011;51.510;9.942;2024-02-16T03:19:25;12.30;99.90
33673;DHT22;20011;51.510;9.942;2024-02-16T03:21:53;12.30;99.90
33673;DHT22;20011;51.510;9.942;2024-02-16T03:24:19;12.30;99.90
33673;DHT22;20011;51.510;9.942;2024-02-16T03:26:47;12.30;99.90
33673;DHT22;20011;51.510;9.942;2024-02-16T03:29:15;12.40;99.90
33673;DHT22;20011;51.510;9.942;2024-02-16T03:31:42;12.40;99.90
33673;DHT22;20011;51.510;9.942;2024-02-16T03:34:09;12.40;99.90
33673;DHT22;20011;51.510;9.942;2024-02-16T03:36:37;12.30;99.90
33673;DHT22;20011;51.510;9.942;2024-02-16T03:39:04;12.20;99.90
33673;DHT22;20011;51.510;9.942;2024-02-16T03:41:31;12.20;99.90
33673;DHT22;20011;51.510;9.942;2024-02-16T03:43:58;12.20;99.90
33673;DHT22;20011;51.510;9.942;2024-02-16T03:46:25;12.20;99.90
33673;DHT22;20011;51.510;9.942;2024-02-16T03:48:52;12.20;99.90
33673;DHT22;20011;51.510;9.942;2024-02-16T03:51:19;12.10;99.90
33673;DHT22;20011;51.510;9.942;2024-02-16T03:53:46;12.10;99.90
33673;DHT22;20011;51.510;9.942;2024-02-16T03:56:19;12.10;99.90
33673;DHT22;20011;51.510;9.942;2024-02-16T03:58:46;12.10;99.90
33673;DHT22;20011;51.510;9.942;2024-02-16T04:01:13;12.00;99.90
33673;DHT22;20011;51.510;9.942;2024-02-16T04:03:40;12.00;99.90
33673;DHT22;20011;51.510;9.942;2024-02-16T04:06:07;12.00;99.90
33673;DHT22;20011;51.510;9.942;2024-02-16T04:08:34;12.10;99.90
33673;DHT22;20011;51.510;9.942;2024-02-16T04:11:01;12.00;99.90
33673;DHT22;20011;51.510;9.942;2024-02-16T04:13:29;12.00;99.90
33673;DHT22;20011;51.510;9.942;2024-02-16T04:15:56;12.00;99.90
33673;DHT22;20011;51.510;9.942;2024-02-16T04:18:23;12.00;99.90
33673;DHT22;20011;51.510;9.942;2024-02-16T04:20:51;12.00;99.90
33673;DHT22;20011;51.510;9.942;2024-02-16T04:23:18;12.00;99.90
33673;DHT22;20011;51.510;9.942;2024-02-16T04:25:45;12.00;99.90
33673;DHT22;20011;51.510;9.942;2024-02-16T04:28:12;11.90;99.90
33673;DHT22;20011;51.510;9.942;2024-02-16T04:30:40;11.90;99.90
33673;DHT22;20011;51.510;9.942;2024-02-16T04:33:07;12.00;99.90
33673;DHT22;20011;51.510;9.942;2024-02-16T04:35:34;11.90;99.90
33673;DHT22;20011;51.510;9.942;2024-02-16T04:38:01;11.90;99.90
33673;DHT22;20011;51.510;9.942;2024-02-16T04:40:28;12.00;99.90
33673;DHT22;20011;51.510;9.942;2024-02-16T04:42:54;12.00;99.90
33673;DHT22;20011;51.510;9.942;2024-02-16T04:45:21;12.00;99.90
33673;DHT22;20011;51.510;9.942;2024-02-16T04:47:49;12.00;99.90
33673;DHT22;20011;51.510;9.942;2024-02-16T04:50:16;12.00;99.90
33673;DHT22;20011;51.510;9.942;2024-02-16T04:52:43;12.10;99.90
33673;DHT22;20011;51.510;9.942;2024-02-16T04:55:10;12.00;99.90
33673;DHT22;20011;51.510;9.942;2024-02-16T04:57:37;12.00;99.90
33673;DHT22;20011;51.510;9.942;2024-02-16T05:00:05;12.00;99.90
33673;DHT22;20011;51.510;9.942;2024-02-16T05:02:32;12.10;99.90
33673;DHT22;20011;51.510;9.942;2024-02-16T05:04:59;12.10;99.90
33673;DHT22;20011;51.510;9.942;2024-02-16T05:07:30;12.10;99.90
33673;DHT22;20011;51.510;9.942;2024-02-16T05:09:58;12.00;99.90
33673;DHT22;20011;51.510;9.942;2024-02-16T05:12:26;12.10;99.90
33673;DHT22;20011;51.510;9.942;2024-02-16T05:14:54;12.10;99.90
33673;DHT22;20011;51.510;9.942;2024-02-16T05:17:21;12.20;99.90
33673;DHT22;20011;51.510;9.942;2024-02-16T05:19:51;12.10;99.90
33673;DHT22;20011;51.510;9.942;2024-02-16T05:22:18;12.20;99.90
33673;DHT22;20011;51.510;9.942;2024-02-16T05:24:46;12.20;99.90
33673;DHT22;20011;51.510;9.942;2024-02-16T05:27:13;12.10;99.90
33673;DHT22;20011;51.510;9.942;2024-02-16T05:29:41;12.10;99.90
33673;DHT22;20011;51.510;9.942;2024-02-16T05:32:08;12.20;99.90
33673;DHT22;20011;51.510;9.942;2024-02-16T05:34:34;12.20;99.90
33673;DHT22;20011;51.510;9.942;2024-02-16T05:37:05;12.10;99.90
33673;DHT22;20011;51.510;9.942;2024-02-16T05:39:38;12.20;99.90
33673;DHT22;20011;51.510;9.942;2024-02-16T05:42:24;12.20;99.90
33673;DHT22;20011;51.510;9.942;2024-02-16T05:44:51;12.10;99.90
33673;DHT22;20011;51.510;9.942;2024-02-16T05:47:19;12.20;99.90
33673;DHT22;20011;51.510;9.942;2024-02-16T05:49:46;12.20;99.90
33673;DHT22;20011;51.510;9.942;2024-02-16T05:52:13;12.20;99.90
33673;DHT22;20011;51.510;9.942;2024-02-16T05:54:47;12.30;99.90
33673;DHT22;20011;51.510;9.942;2024-02-16T05:57:16;12.30;99.90
33673;DHT22;20011;51.510;9.942;2024-02-16T05:59:44;12.30;99.90
33673;DHT22;20011;51.510;9.942;2024-02-16T06:02:12;12.30;99.90
33673;DHT22;20011;51.510;9.942;2024-02-16T06:04:39;12.30;99.90
33673;DHT22;20011;51.510;9.942;2024-02-16T06:07:07;12.30;99.90
33673;DHT22;20011;51.510;9.942;2024-02-16T06:09:34;12.30;99.90
33673;DHT22;20011;51.510;9.942;2024-02-16T06:12:04;12.30;99.90
33673;DHT22;20011;51.510;9.942;2024-02-16T06:14:31;12.40;99.90
33673;DHT22;20011;51.510;9.942;2024-02-16T06:16:58;12.30;99.90
33673;DHT22;20011;51.510;9.942;2024-02-16T06:19:26;12.40;99.90
33673;DHT22;20011;51.510;9.942;2024-02-16T06:21:54;12.40;99.90
33673;DHT22;20011;51.510;9.942;2024-02-16T06:24:24;12.30;99.90
33673;DHT22;20011;51.510;9.942;2024-02-16T06:26:51;12.40;99.90
33673;DHT22;20011;51.510;9.942;2024-02-16T06:29:23;12.40;99.90
33673;DHT22;20011;51.510;9.942;2024-02-16T06:31:50;12.50;99.90
33673;DHT22;20011;51.510;9.942;2024-02-16T06:34:19;12.40;99.90
33673;DHT22;20011;51.510;9.942;2024-02-16T06:36:46;12.50;99.90
33673;DHT22;20011;51.510;9.942;2024-02-16T06:39:15;12.50;99.90
33673;DHT22;20011;51.510;9.942;2024-02-16T06:41:44;12.50;99.90
33673;DHT22;20011;51.510;9.942;2024-02-16T06:44:12;12.50;99.90
33673;DHT22;20011;51.510;9.942;2024-02-16T06:46:39;12.50;99.90
33673;DHT22;20011;51.510;9.942;2024-02-16T06:49:07;12.50;99.90
33673;DHT22;20011;51.510;9.942;2024-02-16T06:51:34;12.40;99.90
33673;DHT22;20011;51.510;9.942;2024-02-16T06:54:01;12.50;99.90
33673;DHT22;20011;51.510;9.942;2024-02-16T06:56:29;12.30;99.90
33673;DHT22;20011;51.510;9.942;2024-02-16T06:58:57;12.40;99.90
33673;DHT22;20011;51.510;9.942;2024-02-16T07:01:24;12.30;99.90
33673;DHT22;20011;51.510;9.942;2024-02-16T07:03:54;12.40;99.90
33673;DHT22;20011;51.510;9.942;2024-02-16T07:06:21;12.30;99.90
33673;DHT22;20011;51.510;9.942;2024-02-16T07:08:49;12.40;99.90
33673;DHT22;20011;51.510;9.942;2024-02-16T07:11:17;12.30;99.90
33673;DHT22;20011;51.510;9.942;2024-02-16T07:13:45;12.40;99.90
33673;DHT22;20011;51.510;9.942;2024-02-16T07:16:13;12.40;99.90
33673;DHT22;20011;51.510;9.942;2024-02-16T07:18:40;12.40;99.90
33673;DHT22;20011;51.510;9.942;2024-02-16T07:21:09;12.30;99.90
33673;DHT22;20011;51.510;9.942;2024-02-16T07:23:36;12.30;99.90
33673;DHT22;20011;51.510;9.942;2024-02-16T07:26:04;12.30;99.90
33673;DHT22;20011;51.510;9.942;2024-02-16T07:28:33;12.30;99.90
33673;DHT22;20011;51.510;9.942;2024-02-16T07:31:01;12.30;99.90
33673;DHT22;20011;51.510;9.942;2024-02-16T07:33:28;12.30;99.90
33673;DHT22;20011;51.510;9.942;2024-02-16T07:35:56;12.30;99.90
33673;DHT22;20011;51.510;9.942;2024-02-16T07:38:23;12.30;99.90
33673;DHT22;20011;51.510;9.942;2024-02-16T07:40:50;12.20;99.90
33673;DHT22;20011;51.510;9.942;2024-02-16T07:43:17;12.30;99.90
33673;DHT22;20011;51.510;9.942;2024-02-16T07:45:45;12.30;99.90
33673;DHT22;20011;51.510;9.942;2024-02-16T07:48:13;12.30;99.90
33673;DHT22;20011;51.510;9.942;2024-02-16T07:50:40;12.30;99.90
33673;DHT22;20011;51.510;9.942;2024-02-16T07:53:07;12.30;99.90
33673;DHT22;20011;51.510;9.942;2024-02-16T07:55:36;12.30;99.90
33673;DHT22;20011;51.510;9.942;2024-02-16T07:58:03;12.30;99.90
33673;DHT22;20011;51.510;9.942;2024-02-16T08:00:30;12.30;99.90
33673;DHT22;20011;51.510;9.942;2024-02-16T08:02:58;12.40;99.90
33673;DHT22;20011;51.510;9.942;2024-02-16T08:05:25;12.40;99.90
33673;DHT22;20011;51.510;9.942;2024-02-16T08:07:53;12.30;99.90
33673;DHT22;20011;51.510;9.942;2024-02-16T08:10:20;12.40;99.90
33673;DHT22;20011;51.510;9.942;2024-02-16T08:12:48;12.40;99.90
33673;DHT22;20011;51.510;9.942;2024-02-16T08:15:16;12.40;99.90
33673;DHT22;20011;51.510;9.942;2024-02-16T08:17:49;12.40;99.90
33673;DHT22;20011;51.510;9.942;2024-02-16T08:20:18;12.50;99.90
33673;DHT22;20011;51.510;9.942;2024-02-16T08:22:45;12.40;99.90
33673;DHT22;20011;51.510;9.942;2024-02-16T08:25:12;12.50;99.90
33673;DHT22;20011;51.510;9.942;2024-02-16T08:27:39;12.50;99.90
33673;DHT22;20011;51.510;9.942;2024-02-16T08:30:06;12.40;99.90
33673;DHT22;20011;51.510;9.942;2024-02-16T08:32:36;12.50;99.90
33673;DHT22;20011;51.510;9.942;2024-02-16T08:35:03;12.50;99.90
33673;DHT22;20011;51.510;9.942;2024-02-16T08:37:30;12.50;99.90
33673;DHT22;20011;51.510;9.942;2024-02-16T08:39:57;12.50;99.90
33673;DHT22;20011;51.510;9.942;2024-02-16T08:42:24;12.50;99.90
33673;DHT22;20011;51.510;9.942;2024-02-16T08:44:51;12.60;99.90
33673;DHT22;20011;51.510;9.942;2024-02-16T08:47:18;12.50;99.90
33673;DHT22;20011;51.510;9.942;2024-02-16T08:49:46;12.60;99.90
33673;DHT22;20011;51.510;9.942;2024-02-16T08:52:13;12.70;99.90
33673;DHT22;20011;51.510;9.942;2024-02-16T08:54:42;12.60;99.90
33673;DHT22;20011;51.510;9.942;2024-02-16T08:57:10;12.60;99.90
33673;DHT22;20011;51.510;9.942;2024-02-16T08:59:37;12.70;99.90
33673;DHT22;20011;51.510;9.942;2024-02-16T09:02:04;12.80;99.90
33673;DHT22;20011;51.510;9.942;2024-02-16T09:04:32;12.80;99.90
33673;DHT22;20011;51.510;9.942;2024-02-16T09:06:59;12.80;99.90
33673;DHT22;20011;51.510;9.942;2024-02-16T09:09:26;12.80;99.90
33673;DHT22;20011;51.510;9.942;2024-02-16T09:11:55;12.90;99.90
33673;DHT22;20011;51.510;9.942;2024-02-16T09:14:22;12.90;99.90
33673;DHT22;20011;51.510;9.942;2024-02-16T09:16:49;12.90;99.90
33673;DHT22;20011;51.510;9.942;2024-02-16T09:19:19;13.00;99.90
33673;DHT22;20011;51.510;9.942;2024-02-16T09:21:49;13.00;99.90
33673;DHT22;20011;51.510;9.942;2024-02-16T09:24:19;13.10;99.90
33673;DHT22;20011;51.510;9.942;2024-02-16T09:26:46;13.10;99.90
33673;DHT22;20011;51.510;9.942;2024-02-16T09:29:14;13.20;99.90
33673;DHT22;20011;51.510;9.942;2024-02-16T09:31:41;13.20;99.90
33673;DHT22;20011;51.510;9.942;2024-02-16T09:34:09;13.20;99.90
33673;DHT22;20011;51.510;9.942;2024-02-16T09:36:36;13.20;99.90
33673;DHT22;20011;51.510;9.942;2024-02-16T09:39:04;13.20;99.90
33673;DHT22;20011;51.510;9.942;2024-02-16T09:41:34;13.20;99.90
33673;DHT22;20011;51.510;9.942;2024-02-16T09:44:03;13.20;99.90
33673;DHT22;20011;51.510;9.942;2024-02-16T09:46:31;13.20;99.90
33673;DHT22;20011;51.510;9.942;2024-02-16T09:49:04;13.20;99.90
33673;DHT22;20011;51.510;9.942;2024-02-16T09:51:32;13.20;99.90
33673;DHT22;20011;51.510;9.942;2024-02-16T09:54:03;13.30;99.90
33673;DHT22;20011;51.510;9.942;2024-02-16T09:56:30;13.20;99.90
33673;DHT22;20011;51.510;9.942;2024-02-16T09:58:57;13.30;99.90
33673;DHT22;20011;51.510;9.942;2024-02-16T10:01:24;13.30;99.90
33673;DHT22;20011;51.510;9.942;2024-02-16T10:03:52;13.30;99.90
33673;DHT22;20011;51.510;9.942;2024-02-16T10:06:19;13.30;99.90
33673;DHT22;20011;51.510;9.942;2024-02-16T10:08:50;13.20;99.90
33673;DHT22;20011;51.510;9.942;2024-02-16T10:11:20;13.30;99.90
33673;DHT22;20011;51.510;9.942;2024-02-16T10:13:54;13.30;99.90
33673;DHT22;20011;51.510;9.942;2024-02-16T10:16:22;13.30;99.90
33673;DHT22;20011;51.510;9.942;2024-02-16T10:18:49;13.30;99.90
33673;DHT22;20011;51.510;9.942;2024-02-16T10:21:28;13.30;99.90
33673;DHT22;20011;51.510;9.942;2024-02-16T10:23:59;13.30;99.90
33673;DHT22;20011;51.510;9.942;2024-02-16T10:26:28;13.30;99.90
33673;DHT22;20011;51.510;9.942;2024-02-16T10:28:56;13.40;99.90
33673;DHT22;20011;51.510;9.942;2024-02-16T10:31:31;13.30;99.90
33673;DHT22;20011;51.510;9.942;2024-02-16T10:33:59;13.30;99.90
33673;DHT22;20011;51.510;9.942;2024-02-16T10:36:26;13.40;99.90
33673;DHT22;20011;51.510;9.942;2024-02-16T10:38:55;13.40;99.90
33673;DHT22;20011;51.510;9.942;2024-02-16T10:41:28;13.50;99.90
33673;DHT22;20011;51.510;9.942;2024-02-16T10:43:58;13.50;99.90
33673;DHT22;20011;51.510;9.942;2024-02-16T10:46:25;13.60;99.90
33673;DHT22;20011;51.510;9.942;2024-02-16T10:48:53;13.50;99.90
33673;DHT22;20011;51.510;9.942;2024-02-16T10:51:24;13.60;99.90
33673;DHT22;20011;51.510;9.942;2024-02-16T10:53:52;13.60;99.90
33673;DHT22;20011;51.510;9.942;2024-02-16T10:56:36;13.60;99.90
33673;DHT22;20011;51.510;9.942;2024-02-16T10:59:05;13.60;99.90
33673;DHT22;20011;51.510;9.942;2024-02-16T11:01:36;13.70;99.90
33673;DHT22;20011;51.510;9.942;2024-02-16T11:04:05;13.60;99.90
33673;DHT22;20011;51.510;9.942;2024-02-16T11:09:26;13.60;99.90
33673;DHT22;20011;51.510;9.942;2024-02-16T11:11:58;13.70;99.90
33673;DHT22;20011;51.510;9.942;2024-02-16T11:14:36;13.60;99.90
33673;DHT22;20011;51.510;9.942;2024-02-16T11:17:08;13.60;99.90
33673;DHT22;20011;51.510;9.942;2024-02-16T11:19:37;13.60;99.90
33673;DHT22;20011;51.510;9.942;2024-02-16T11:22:05;13.60;99.90
33673;DHT22;20011;51.510;9.942;2024-02-16T11:24:36;13.60;99.90
33673;DHT22;20011;51.510;9.942;2024-02-16T11:27:08;13.60;99.90
33673;DHT22;20011;51.510;9.942;2024-02-16T11:29:36;13.60;99.90
33673;DHT22;20011;51.510;9.942;2024-02-16T11:32:07;13.70;99.90
33673;DHT22;20011;51.510;9.942;2024-02-16T11:34:34;13.70;99.90
33673;DHT22;20011;51.510;9.942;2024-02-16T11:37:02;13.70;99.90
33673;DHT22;20011;51.510;9.942;2024-02-16T11:39:29;13.80;99.90
33673;DHT22;20011;51.510;9.942;2024-02-16T11:42:06;13.70;99.90
33673;DHT22;20011;51.510;9.942;2024-02-16T11:44:35;13.70;99.90
33673;DHT22;20011;51.510;9.942;2024-02-16T11:47:03;13.70;99.90
33673;DHT22;20011;51.510;9.942;2024-02-16T11:49:30;13.70;99.90
33673;DHT22;20011;51.510;9.942;2024-02-16T11:52:00;13.70;99.90
33673;DHT22;20011;51.510;9.942;2024-02-16T11:54:27;13.70;99.90
33673;DHT22;20011;51.510;9.942;2024-02-16T11:56:54;13.80;99.90
33673;DHT22;20011;51.510;9.942;2024-02-16T11:59:22;13.70;99.90
33673;DHT22;20011;51.510;9.942;2024-02-16T12:01:56;13.70;99.90
33673;DHT22;20011;51.510;9.942;2024-02-16T12:04:28;13.70;99.90
33673;DHT22;20011;51.510;9.942;2024-02-16T12:07:00;13.70;99.90
33673;DHT22;20011;51.510;9.942;2024-02-16T12:09:31;13.70;99.90
33673;DHT22;20011;51.510;9.942;2024-02-16T12:12:02;13.70;99.90
33673;DHT22;20011;51.510;9.942;2024-02-16T12:14:30;13.80;99.90
33673;DHT22;20011;51.510;9.942;2024-02-16T12:16:57;13.80;99.90
33673;DHT22;20011;51.510;9.942;2024-02-16T12:19:25;13.70;99.90
33673;DHT22;20011;51.510;9.942;2024-02-16T12:21:53;13.80;99.90
33673;DHT22;20011;51.510;9.942;2024-02-16T12:24:22;13.90;99.90
33673;DHT22;20011;51.510;9.942;2024-02-16T12:26:49;14.10;99.90
33673;DHT22;20011;51.510;9.942;2024-02-16T12:29:16;14.20;99.90
33673;DHT22;20011;51.510;9.942;2024-02-16T12:31:44;14.30;99.90
33673;DHT22;20011;51.510;9.942;2024-02-16T12:34:11;14.40;99.90
33673;DHT22;20011;51.510;9.942;2024-02-16T12:36:40;14.30;99.90
33673;DHT22;20011;51.510;9.942;2024-02-16T12:39:10;14.30;99.90
33673;DHT22;20011;51.510;9.942;2024-02-16T12:41:39;14.20;99.90
33673;DHT22;20011;51.510;9.942;2024-02-16T12:44:08;14.10;99.90
33673;DHT22;20011;51.510;9.942;2024-02-16T12:46:35;14.10;99.90
33673;DHT22;20011;51.510;9.942;2024-02-16T12:49:02;14.00;99.90
33673;DHT22;20011;51.510;9.942;2024-02-16T12:51:29;14.00;99.90
33673;DHT22;20011;51.510;9.942;2024-02-16T12:53:56;13.90;99.90
33673;DHT22;20011;51.510;9.942;2024-02-16T12:56:23;13.90;99.90
33673;DHT22;20011;51.510;9.942;2024-02-16T12:58:50;13.90;99.90
33673;DHT22;20011;51.510;9.942;2024-02-16T13:01:17;13.90;99.90
33673;DHT22;20011;51.510;9.942;2024-02-16T13:03:52;13.80;99.90
33673;DHT22;20011;51.510;9.942;2024-02-16T13:06:19;13.80;99.90
33673;DHT22;20011;51.510;9.942;2024-02-16T13:08:53;13.80;99.90
33673;DHT22;20011;51.510;9.942;2024-02-16T13:11:20;13.80;99.90
33673;DHT22;20011;51.510;9.942;2024-02-16T13:13:47;13.80;99.90
33673;DHT22;20011;51.510;9.942;2024-02-16T13:16:14;13.80;99.90
33673;DHT22;20011;51.510;9.942;2024-02-16T13:18:41;13.80;99.90
33673;DHT22;20011;51.510;9.942;2024-02-16T13:21:09;13.80;99.90
33673;DHT22;20011;51.510;9.942;2024-02-16T13:23:36;13.80;99.90
33673;DHT22;20011;51.510;9.942;2024-02-16T13:26:03;13.80;99.90
33673;DHT22;20011;51.510;9.942;2024-02-16T13:28:31;13.80;99.90
33673;DHT22;20011;51.510;9.942;2024-02-16T13:30:58;13.80;99.90
33673;DHT22;20011;51.510;9.942;2024-02-16T13:33:25;13.80;99.90
33673;DHT22;20011;51.510;9.942;2024-02-16T13:35:53;13.80;99.90
33673;DHT22;20011;51.510;9.942;2024-02-16T13:38:21;13.80;99.90
33673;DHT22;20011;51.510;9.942;2024-02-16T13:40:48;13.80;99.90
33673;DHT22;20011;51.510;9.942;2024-02-16T13:43:16;13.90;99.90
33673;DHT22;20011;51.510;9.942;2024-02-16T13:45:49;13.80;99.90
33673;DHT22;20011;51.510;9.942;2024-02-16T13:48:18;13.90;99.90
33673;DHT22;20011;51.510;9.942;2024-02-16T13:50:49;13.80;99.90
33673;DHT22;20011;51.510;9.942;2024-02-16T13:53:16;13.80;99.90
33673;DHT22;20011;51.510;9.942;2024-02-16T13:55:48;13.80;99.90
33673;DHT22;20011;51.510;9.942;2024-02-16T13:58:15;13.90;99.90
33673;DHT22;20011;51.510;9.942;2024-02-16T14:00:42;13.90;99.90
33673;DHT22;20011;51.510;9.942;2024-02-16T14:03:11;13.90;99.90
33673;DHT22;20011;51.510;9.942;2024-02-16T14:05:40;13.90;99.90
33673;DHT22;20011;51.510;9.942;2024-02-16T14:08:08;14.00;99.90
33673;DHT22;20011;51.510;9.942;2024-02-16T14:10:38;14.00;99.90
33673;DHT22;20011;51.510;9.942;2024-02-16T14:13:05;14.00;99.90
33673;DHT22;20011;51.510;9.942;2024-02-16T14:15:32;14.10;99.90
33673;DHT22;20011;51.510;9.942;2024-02-16T14:18:00;14.20;99.90
33673;DHT22;20011;51.510;9.942;2024-02-16T14:20:37;14.20;99.90
33673;DHT22;20011;51.510;9.942;2024-02-16T14:23:05;14.30;99.90
33673;DHT22;20011;51.510;9.942;2024-02-16T14:25:35;14.20;99.90
33673;DHT22;20011;51.510;9.942;2024-02-16T14:28:04;14.30;99.90
33673;DHT22;20011;51.510;9.942;2024-02-16T14:30:31;14.60;99.90
33673;DHT22;20011;51.510;9.942;2024-02-16T14:32:59;14.80;99.90
33673;DHT22;20011;51.510;9.942;2024-02-16T14:35:27;14.90;99.90
33673;DHT22;20011;51.510;9.942;2024-02-16T14:37:54;15.00;99.90
33673;DHT22;20011;51.510;9.942;2024-02-16T14:40:21;14.90;99.90
33673;DHT22;20011;51.510;9.942;2024-02-16T14:42:47;14.90;99.90
33673;DHT22;20011;51.510;9.942;2024-02-16T14:45:15;14.80;99.90
33673;DHT22;20011;51.510;9.942;2024-02-16T14:47:48;14.60;99.90
33673;DHT22;20011;51.510;9.942;2024-02-16T14:50:17;14.50;99.90
33673;DHT22;20011;51.510;9.942;2024-02-16T14:52:44;14.40;99.90
33673;DHT22;20011;51.510;9.942;2024-02-16T14:55:12;14.30;99.90
33673;DHT22;20011;51.510;9.942;2024-02-16T14:57:40;14.20;99.90
33673;DHT22;20011;51.510;9.942;2024-02-16T15:00:09;14.20;99.90
33673;DHT22;20011;51.510;9.942;2024-02-16T15:02:38;14.20;99.90
33673;DHT22;20011;51.510;9.942;2024-02-16T15:05:06;14.10;99.90
33673;DHT22;20011;51.510;9.942;2024-02-16T15:07:34;14.10;99.90
33673;DHT22;20011;51.510;9.942;2024-02-16T15:10:02;14.10;99.90
33673;DHT22;20011;51.510;9.942;2024-02-16T15:12:30;14.00;99.90
33673;DHT22;20011;51.510;9.942;2024-02-16T15:14:57;14.00;99.90
33673;DHT22;20011;51.510;9.942;2024-02-16T15:17:26;13.90;99.90
33673;DHT22;20011;51.510;9.942;2024-02-16T15:19:53;14.00;99.90
33673;DHT22;20011;51.510;9.942;2024-02-16T15:22:21;13.90;99.90
33673;DHT22;20011;51.510;9.942;2024-02-16T15:24:48;13.90;99.90
33673;DHT22;20011;51.510;9.942;2024-02-16T15:27:15;13.90;99.90
33673;DHT22;20011;51.510;9.942;2024-02-16T15:29:42;13.90;99.90
33673;DHT22;20011;51.510;9.942;2024-02-16T15:32:11;13.90;99.90
33673;DHT22;20011;51.510;9.942;2024-02-16T15:34:38;13.90;99.90
33673;DHT22;20011;51.510;9.942;2024-02-16T15:37:06;13.90;99.90